This is the latest recevied weather packets stored in our database for station/object KG7KID-5. If no packets are shown the sender has not sent any weather packets the latest 10 day(s).
| Time | Temp. | Humidity | Pressure | Rain* | Wind** | Luminosity | Snow |
|---|---|---|---|---|---|---|---|
| 1787694180 | 104° F | 16% | 697.9 mmHg | 0 in | - | - | - |
| 1787689063 | 103° F | 16% | 698.7 mmHg | 0 in | - | - | - |
| 1787688756 | 103° F | 16% | 698.8 mmHg | 0 in | - | - | - |
| 1787688456 | 103° F | 15% | 698.8 mmHg | 0 in | - | - | - |
| 1787688156 | 102° F | 15% | 698.9 mmHg | 0 in | - | - | - |
| 1787683020 | 100° F | 20% | 700 mmHg | 0 in | - | - | - |
| 1787682721 | 100° F | 20% | 700 mmHg | 0 in | - | - | - |
| 1787680603 | 96° F | 22% | 700.4 mmHg | 0 in | - | - | - |
| 1787680303 | 95° F | 23% | 700.4 mmHg | 0 in | - | - | - |
| 1787680004 | 95° F | 24% | 700.5 mmHg | 0 in | - | - | - |
| 1787676687 | 91° F | 31% | 701 mmHg | 0 in | - | - | - |
| 1787674580 | 88° F | 32% | 701.2 mmHg | 0 in | - | - | - |
| 1787672878 | 85° F | 36% | 701.4 mmHg | 0 in | - | - | - |
| 1787611643 | 100° F | 18% | 697.6 mmHg | 0 in | - | - | - |
| 1787608979 | 99° F | 19% | 698 mmHg | 0 in | - | - | - |
| 1787608023 | 99° F | 20% | 698.2 mmHg | 0 in | - | - | - |
| 1787606458 | 98° F | 20% | 698.5 mmHg | 0 in | - | - | - |
| 1787605908 | 98° F | 20% | 698.7 mmHg | 0 in | - | - | - |
| 1787605608 | 98° F | 20% | 698.8 mmHg | 0 in | - | - | - |
| 1787605308 | 98° F | 19% | 698.9 mmHg | 0 in | - | - | - |
| 1787604638 | 98° F | 20% | 699.1 mmHg | 0 in | - | - | - |
| 1787598674 | - | - | 700.1 mmHg | 0 in | - | - | - |
| 1787598376 | - | - | 700.2 mmHg | 0 in | - | - | - |
| 1787597170 | - | - | 700.5 mmHg | 0 in | - | - | - |
| 1787594462 | - | - | 701.1 mmHg | 0 in | - | - | - |
* Rain latest hour (hover to see other rain measurements)
** Current wind speed in m/s (hover to see current wind gust speed)